sensor_id;sensor_type;location;lat;lon;timestamp;pressure;altitude;pressure_sealevel;temperature;humidity
5284;BME280;15377;48.540;9.268;2023-04-27T00:00:38;97525.06;;;6.57;100.00
5284;BME280;15377;48.540;9.268;2023-04-27T00:03:03;97503.47;;;6.50;100.00
5284;BME280;15377;48.540;9.268;2023-04-27T00:05:36;97518.16;;;6.65;100.00
5284;BME280;15377;48.540;9.268;2023-04-27T00:08:06;97519.38;;;6.64;100.00
5284;BME280;15377;48.540;9.268;2023-04-27T00:10:32;97513.03;;;6.67;100.00
5284;BME280;15377;48.540;9.268;2023-04-27T00:12:59;97516.72;;;6.73;100.00
5284;BME280;15377;48.540;9.268;2023-04-27T00:15:25;97518.31;;;6.83;100.00
5284;BME280;15377;48.540;9.268;2023-04-27T00:17:50;97517.13;;;6.84;100.00
5284;BME280;15377;48.540;9.268;2023-04-27T00:20:16;97521.94;;;6.80;100.00
5284;BME280;15377;48.540;9.268;2023-04-27T00:22:43;97502.41;;;6.69;100.00
5284;BME280;15377;48.540;9.268;2023-04-27T00:25:08;97508.97;;;6.71;100.00
5284;BME280;15377;48.540;9.268;2023-04-27T00:27:33;97520.66;;;6.72;100.00
5284;BME280;15377;48.540;9.268;2023-04-27T00:29:59;97505.94;;;6.57;100.00
5284;BME280;15377;48.540;9.268;2023-04-27T00:32:24;97514.91;;;6.57;100.00
5284;BME280;15377;48.540;9.268;2023-04-27T00:34:50;97522.03;;;6.55;100.00
5284;BME280;15377;48.540;9.268;2023-04-27T00:37:15;97533.84;;;6.52;100.00
5284;BME280;15377;48.540;9.268;2023-04-27T00:39:40;97521.63;;;6.44;100.00
5284;BME280;15377;48.540;9.268;2023-04-27T00:42:06;97517.03;;;6.41;100.00
5284;BME280;15377;48.540;9.268;2023-04-27T00:44:35;97519.75;;;6.53;100.00
5284;BME280;15377;48.540;9.268;2023-04-27T00:47:01;97499.84;;;6.53;100.00
5284;BME280;15377;48.540;9.268;2023-04-27T00:49:27;97511.38;;;6.69;100.00
5284;BME280;15377;48.540;9.268;2023-04-27T00:51:53;97510.50;;;6.72;100.00
5284;BME280;15377;48.540;9.268;2023-04-27T00:54:19;97504.25;;;6.72;100.00
5284;BME280;15377;48.540;9.268;2023-04-27T00:56:49;97502.34;;;6.60;100.00
5284;BME280;15377;48.540;9.268;2023-04-27T00:59:16;97502.88;;;6.55;100.00
5284;BME280;15377;48.540;9.268;2023-04-27T01:01:42;97511.00;;;6.46;100.00
5284;BME280;15377;48.540;9.268;2023-04-27T01:04:07;97493.09;;;6.45;100.00
5284;BME280;15377;48.540;9.268;2023-04-27T01:06:32;97496.72;;;6.42;100.00
5284;BME280;15377;48.540;9.268;2023-04-27T01:08:58;97481.59;;;6.37;100.00
5284;BME280;15377;48.540;9.268;2023-04-27T01:11:23;97489.97;;;6.34;100.00
5284;BME280;15377;48.540;9.268;2023-04-27T01:13:49;97501.44;;;6.29;100.00
5284;BME280;15377;48.540;9.268;2023-04-27T01:16:16;97501.03;;;6.18;100.00
5284;BME280;15377;48.540;9.268;2023-04-27T01:18:42;97512.81;;;6.15;100.00
5284;BME280;15377;48.540;9.268;2023-04-27T01:21:08;97497.00;;;6.10;100.00
5284;BME280;15377;48.540;9.268;2023-04-27T01:23:34;97507.69;;;6.17;100.00
5284;BME280;15377;48.540;9.268;2023-04-27T01:25:59;97513.88;;;6.30;100.00
5284;BME280;15377;48.540;9.268;2023-04-27T01:28:25;97502.41;;;6.35;100.00
5284;BME280;15377;48.540;9.268;2023-04-27T01:30:50;97508.41;;;6.42;100.00
5284;BME280;15377;48.540;9.268;2023-04-27T01:33:16;97508.59;;;6.48;100.00
5284;BME280;15377;48.540;9.268;2023-04-27T01:35:41;97521.38;;;6.51;100.00
5284;BME280;15377;48.540;9.268;2023-04-27T01:38:06;97517.03;;;6.41;100.00
5284;BME280;15377;48.540;9.268;2023-04-27T01:40:32;97512.06;;;6.27;100.00
5284;BME280;15377;48.540;9.268;2023-04-27T01:43:00;97516.75;;;6.26;100.00
5284;BME280;15377;48.540;9.268;2023-04-27T01:45:25;97514.44;;;6.25;100.00
5284;BME280;15377;48.540;9.268;2023-04-27T01:47:51;97500.47;;;6.10;100.00
5284;BME280;15377;48.540;9.268;2023-04-27T01:50:17;97509.34;;;6.02;100.00
5284;BME280;15377;48.540;9.268;2023-04-27T01:52:42;97512.44;;;5.91;100.00
5284;BME280;15377;48.540;9.268;2023-04-27T01:55:08;97509.13;;;5.84;100.00
5284;BME280;15377;48.540;9.268;2023-04-27T01:57:33;97512.50;;;5.75;100.00
5284;BME280;15377;48.540;9.268;2023-04-27T01:59:58;97506.81;;;5.70;100.00
5284;BME280;15377;48.540;9.268;2023-04-27T02:02:24;97517.84;;;5.66;100.00
5284;BME280;15377;48.540;9.268;2023-04-27T02:04:49;97513.16;;;5.54;100.00
5284;BME280;15377;48.540;9.268;2023-04-27T02:07:15;97512.81;;;5.52;100.00
5284;BME280;15377;48.540;9.268;2023-04-27T02:09:40;97514.13;;;5.48;100.00
5284;BME280;15377;48.540;9.268;2023-04-27T02:12:06;97517.50;;;5.52;100.00
5284;BME280;15377;48.540;9.268;2023-04-27T02:14:31;97508.44;;;5.42;100.00
5284;BME280;15377;48.540;9.268;2023-04-27T02:16:57;97513.03;;;5.45;100.00
5284;BME280;15377;48.540;9.268;2023-04-27T02:19:22;97524.69;;;5.46;100.00
5284;BME280;15377;48.540;9.268;2023-04-27T02:21:47;97524.06;;;5.42;100.00
5284;BME280;15377;48.540;9.268;2023-04-27T02:24:13;97522.72;;;5.34;100.00
5284;BME280;15377;48.540;9.268;2023-04-27T02:26:38;97521.41;;;5.26;100.00
5284;BME280;15377;48.540;9.268;2023-04-27T02:29:03;97523.03;;;5.23;100.00
5284;BME280;15377;48.540;9.268;2023-04-27T02:31:29;97524.66;;;5.21;100.00
5284;BME280;15377;48.540;9.268;2023-04-27T02:33:54;97520.94;;;5.15;100.00
5284;BME280;15377;48.540;9.268;2023-04-27T02:36:20;97521.16;;;5.08;100.00
5284;BME280;15377;48.540;9.268;2023-04-27T02:38:45;97522.38;;;5.19;100.00
5284;BME280;15377;48.540;9.268;2023-04-27T02:41:11;97530.66;;;5.16;100.00
5284;BME280;15377;48.540;9.268;2023-04-27T02:43:36;97521.81;;;5.12;100.00
5284;BME280;15377;48.540;9.268;2023-04-27T02:46:02;97525.72;;;5.11;100.00
5284;BME280;15377;48.540;9.268;2023-04-27T02:48:29;97532.38;;;5.10;100.00
5284;BME280;15377;48.540;9.268;2023-04-27T02:50:55;97525.91;;;5.04;100.00
5284;BME280;15377;48.540;9.268;2023-04-27T02:53:21;97533.69;;;5.05;100.00
5284;BME280;15377;48.540;9.268;2023-04-27T02:55:47;97535.31;;;5.03;100.00
5284;BME280;15377;48.540;9.268;2023-04-27T02:58:14;97538.34;;;5.05;100.00
5284;BME280;15377;48.540;9.268;2023-04-27T03:00:40;97529.84;;;5.03;100.00
5284;BME280;15377;48.540;9.268;2023-04-27T03:03:06;97525.91;;;5.04;100.00
5284;BME280;15377;48.540;9.268;2023-04-27T03:05:32;97531.38;;;5.04;100.00
5284;BME280;15377;48.540;9.268;2023-04-27T03:07:58;97525.03;;;5.07;100.00
5284;BME280;15377;48.540;9.268;2023-04-27T03:10:23;97536.31;;;5.09;100.00
5284;BME280;15377;48.540;9.268;2023-04-27T03:12:49;97533.59;;;5.09;100.00
5284;BME280;15377;48.540;9.268;2023-04-27T03:15:14;97528.34;;;5.14;100.00
5284;BME280;15377;48.540;9.268;2023-04-27T03:17:40;97537.28;;;5.15;100.00
5284;BME280;15377;48.540;9.268;2023-04-27T03:20:05;97528.78;;;5.13;100.00
5284;BME280;15377;48.540;9.268;2023-04-27T03:22:34;97528.34;;;5.14;100.00
5284;BME280;15377;48.540;9.268;2023-04-27T03:25:00;97535.75;;;5.14;100.00
5284;BME280;15377;48.540;9.268;2023-04-27T03:27:25;97519.41;;;5.14;100.00
5284;BME280;15377;48.540;9.268;2023-04-27T03:29:51;97527.72;;;5.23;100.00
5284;BME280;15377;48.540;9.268;2023-04-27T03:32:19;97536.25;;;5.25;100.00
5284;BME280;15377;48.540;9.268;2023-04-27T03:34:45;97540.06;;;5.27;100.00
5284;BME280;15377;48.540;9.268;2023-04-27T03:37:11;97531.63;;;5.22;100.00
5284;BME280;15377;48.540;9.268;2023-04-27T03:39:36;97533.53;;;5.25;100.00
5284;BME280;15377;48.540;9.268;2023-04-27T03:42:01;97541.50;;;5.32;100.00
5284;BME280;15377;48.540;9.268;2023-04-27T03:44:27;97524.78;;;5.30;100.00
5284;BME280;15377;48.540;9.268;2023-04-27T03:46:53;97536.50;;;5.43;100.00
5284;BME280;15377;48.540;9.268;2023-04-27T03:49:18;97535.50;;;5.49;100.00
5284;BME280;15377;48.540;9.268;2023-04-27T03:51:43;97529.63;;;5.51;100.00
5284;BME280;15377;48.540;9.268;2023-04-27T03:54:09;97537.50;;;5.61;100.00
5284;BME280;15377;48.540;9.268;2023-04-27T03:56:34;97542.84;;;5.65;100.00
5284;BME280;15377;48.540;9.268;2023-04-27T03:59:01;97545.03;;;5.70;100.00
5284;BME280;15377;48.540;9.268;2023-04-27T04:01:27;97545.28;;;5.75;100.00
5284;BME280;15377;48.540;9.268;2023-04-27T04:03:52;97546.03;;;5.76;100.00
5284;BME280;15377;48.540;9.268;2023-04-27T04:06:18;97541.44;;;5.73;100.00
5284;BME280;15377;48.540;9.268;2023-04-27T04:08:43;97538.59;;;5.76;100.00
5284;BME280;15377;48.540;9.268;2023-04-27T04:11:08;97537.66;;;5.83;100.00
5284;BME280;15377;48.540;9.268;2023-04-27T04:13:34;97544.53;;;5.87;100.00
5284;BME280;15377;48.540;9.268;2023-04-27T04:16:04;97552.94;;;5.93;100.00
5284;BME280;15377;48.540;9.268;2023-04-27T04:18:29;97549.88;;;5.91;100.00
5284;BME280;15377;48.540;9.268;2023-04-27T04:20:55;97542.91;;;5.90;100.00
5284;BME280;15377;48.540;9.268;2023-04-27T04:23:20;97558.19;;;6.00;100.00
5284;BME280;15377;48.540;9.268;2023-04-27T04:25:46;97546.25;;;5.94;100.00
5284;BME280;15377;48.540;9.268;2023-04-27T04:28:12;97544.53;;;5.87;100.00
5284;BME280;15377;48.540;9.268;2023-04-27T04:30:38;97529.22;;;5.77;100.00
5284;BME280;15377;48.540;9.268;2023-04-27T04:33:04;97554.81;;;5.96;100.00
5284;BME280;15377;48.540;9.268;2023-04-27T04:35:29;97551.72;;;5.94;100.00
5284;BME280;15377;48.540;9.268;2023-04-27T04:37:57;97559.06;;;5.97;100.00
5284;BME280;15377;48.540;9.268;2023-04-27T04:40:23;97561.22;;;6.02;100.00
5284;BME280;15377;48.540;9.268;2023-04-27T04:42:48;97564.63;;;6.06;100.00
5284;BME280;15377;48.540;9.268;2023-04-27T04:45:13;97558.38;;;6.05;100.00
5284;BME280;15377;48.540;9.268;2023-04-27T04:47:39;97552.28;;;6.14;100.00
5284;BME280;15377;48.540;9.268;2023-04-27T04:50:06;97563.72;;;6.21;100.00
5284;BME280;15377;48.540;9.268;2023-04-27T04:52:34;97562.75;;;6.28;100.00
5284;BME280;15377;48.540;9.268;2023-04-27T04:55:02;97557.28;;;6.28;100.00
5284;BME280;15377;48.540;9.268;2023-04-27T04:57:29;97571.69;;;6.41;100.00
5284;BME280;15377;48.540;9.268;2023-04-27T04:59:54;97568.72;;;6.48;100.00
5284;BME280;15377;48.540;9.268;2023-04-27T05:02:19;97572.63;;;6.59;100.00
5284;BME280;15377;48.540;9.268;2023-04-27T05:04:45;97570.66;;;6.72;100.00
5284;BME280;15377;48.540;9.268;2023-04-27T05:07:11;97572.94;;;6.74;100.00
5284;BME280;15377;48.540;9.268;2023-04-27T05:09:36;97574.47;;;6.75;100.00
5284;BME280;15377;48.540;9.268;2023-04-27T05:12:02;97583.38;;;6.88;100.00
5284;BME280;15377;48.540;9.268;2023-04-27T05:14:28;97566.72;;;6.95;100.00
5284;BME280;15377;48.540;9.268;2023-04-27T05:16:53;97569.41;;;7.07;100.00
5284;BME280;15377;48.540;9.268;2023-04-27T05:19:18;97564.72;;;7.07;100.00
5284;BME280;15377;48.540;9.268;2023-04-27T05:21:44;97567.84;;;7.18;100.00
5284;BME280;15377;48.540;9.268;2023-04-27T05:24:10;97574.28;;;7.24;100.00
5284;BME280;15377;48.540;9.268;2023-04-27T05:26:37;97566.13;;;7.33;100.00
5284;BME280;15377;48.540;9.268;2023-04-27T05:29:02;97573.34;;;7.40;100.00
5284;BME280;15377;48.540;9.268;2023-04-27T05:31:27;97569.56;;;7.46;100.00
5284;BME280;15377;48.540;9.268;2023-04-27T05:33:56;97585.78;;;7.62;100.00
5284;BME280;15377;48.540;9.268;2023-04-27T05:36:21;97567.22;;;7.66;100.00
5284;BME280;15377;48.540;9.268;2023-04-27T05:38:46;97570.31;;;7.68;100.00
5284;BME280;15377;48.540;9.268;2023-04-27T05:41:12;97581.50;;;7.83;100.00
5284;BME280;15377;48.540;9.268;2023-04-27T05:43:37;97584.13;;;7.95;100.00
5284;BME280;15377;48.540;9.268;2023-04-27T05:46:03;97587.41;;;8.12;100.00
5284;BME280;15377;48.540;9.268;2023-04-27T05:48:28;97590.69;;;8.28;100.00
5284;BME280;15377;48.540;9.268;2023-04-27T05:51:01;97584.03;;;8.38;100.00
5284;BME280;15377;48.540;9.268;2023-04-27T05:53:28;97583.00;;;8.45;100.00
5284;BME280;15377;48.540;9.268;2023-04-27T05:55:54;97586.53;;;8.54;100.00
5284;BME280;15377;48.540;9.268;2023-04-27T05:58:19;97599.97;;;8.70;100.00
5284;BME280;15377;48.540;9.268;2023-04-27T06:00:44;97594.78;;;8.81;100.00
5284;BME280;15377;48.540;9.268;2023-04-27T06:03:10;97592.69;;;8.94;100.00
5284;BME280;15377;48.540;9.268;2023-04-27T06:05:35;97606.72;;;9.14;100.00
5284;BME280;15377;48.540;9.268;2023-04-27T06:08:01;97604.88;;;9.38;100.00
5284;BME280;15377;48.540;9.268;2023-04-27T06:10:26;97616.78;;;9.62;100.00
5284;BME280;15377;48.540;9.268;2023-04-27T06:12:52;97604.84;;;9.74;100.00
5284;BME280;15377;48.540;9.268;2023-04-27T06:15:18;97611.69;;;9.88;100.00
5284;BME280;15377;48.540;9.268;2023-04-27T06:17:46;97615.47;;;9.99;100.00
5284;BME280;15377;48.540;9.268;2023-04-27T06:20:11;97624.34;;;10.12;100.00
5284;BME280;15377;48.540;9.268;2023-04-27T06:22:37;97629.53;;;10.19;100.00
5284;BME280;15377;48.540;9.268;2023-04-27T06:25:04;97631.47;;;10.28;100.00
5284;BME280;15377;48.540;9.268;2023-04-27T06:27:29;97628.59;;;10.22;100.00
5284;BME280;15377;48.540;9.268;2023-04-27T06:29:55;97619.03;;;10.41;100.00
5284;BME280;15377;48.540;9.268;2023-04-27T06:32:20;97631.38;;;10.46;100.00
5284;BME280;15377;48.540;9.268;2023-04-27T06:34:46;97625.69;;;10.58;100.00
5284;BME280;15377;48.540;9.268;2023-04-27T06:37:11;97643.91;;;10.79;100.00
5284;BME280;15377;48.540;9.268;2023-04-27T06:39:39;97642.28;;;10.96;100.00
5284;BME280;15377;48.540;9.268;2023-04-27T06:42:04;97631.88;;;11.00;100.00
5284;BME280;15377;48.540;9.268;2023-04-27T06:44:29;97641.25;;;11.17;100.00
5284;BME280;15377;48.540;9.268;2023-04-27T06:46:55;97634.59;;;11.23;100.00
5284;BME280;15377;48.540;9.268;2023-04-27T06:49:20;97631.38;;;11.25;100.00
5284;BME280;15377;48.540;9.268;2023-04-27T06:51:47;97643.50;;;11.42;100.00
5284;BME280;15377;48.540;9.268;2023-04-27T06:54:12;97645.44;;;11.50;100.00
5284;BME280;15377;48.540;9.268;2023-04-27T06:56:38;97640.44;;;11.63;100.00
5284;BME280;15377;48.540;9.268;2023-04-27T06:59:03;97646.81;;;11.69;100.00
5284;BME280;15377;48.540;9.268;2023-04-27T07:01:28;97649.22;;;11.91;100.00
5284;BME280;15377;48.540;9.268;2023-04-27T07:03:54;97635.53;;;12.11;100.00
5284;BME280;15377;48.540;9.268;2023-04-27T07:06:19;97636.47;;;12.37;100.00
5284;BME280;15377;48.540;9.268;2023-04-27T07:08:46;97631.88;;;12.63;100.00
5284;BME280;15377;48.540;9.268;2023-04-27T07:11:11;97634.53;;;12.92;100.00
5284;BME280;15377;48.540;9.268;2023-04-27T07:13:37;97641.06;;;13.09;100.00
5284;BME280;15377;48.540;9.268;2023-04-27T07:16:02;97644.66;;;13.15;100.00
5284;BME280;15377;48.540;9.268;2023-04-27T07:18:28;97629.59;;;13.16;100.00
5284;BME280;15377;48.540;9.268;2023-04-27T07:20:54;97644.84;;;13.26;100.00
5284;BME280;15377;48.540;9.268;2023-04-27T07:23:19;97637.50;;;13.03;100.00
5284;BME280;15377;48.540;9.268;2023-04-27T07:25:45;97634.84;;;12.79;100.00
5284;BME280;15377;48.540;9.268;2023-04-27T07:28:11;97645.84;;;13.08;100.00
5284;BME280;15377;48.540;9.268;2023-04-27T07:30:37;97641.63;;;13.33;100.00
5284;BME280;15377;48.540;9.268;2023-04-27T07:33:02;97631.69;;;13.41;100.00
5284;BME280;15377;48.540;9.268;2023-04-27T07:35:28;97644.41;;;13.53;100.00
5284;BME280;15377;48.540;9.268;2023-04-27T07:37:53;97625.81;;;13.53;100.00
5284;BME280;15377;48.540;9.268;2023-04-27T07:40:21;97626.66;;;13.65;100.00
5284;BME280;15377;48.540;9.268;2023-04-27T07:42:48;97632.44;;;13.61;100.00
5284;BME280;15377;48.540;9.268;2023-04-27T07:45:13;97627.19;;;13.43;100.00
5284;BME280;15377;48.540;9.268;2023-04-27T07:47:41;97624.78;;;13.31;100.00
5284;BME280;15377;48.540;9.268;2023-04-27T07:50:08;97634.59;;;13.52;100.00
5284;BME280;15377;48.540;9.268;2023-04-27T07:52:34;97631.09;;;13.57;100.00
5284;BME280;15377;48.540;9.268;2023-04-27T07:55:00;97642.81;;;13.46;96.58
5284;BME280;15377;48.540;9.268;2023-04-27T07:57:26;97639.97;;;13.41;99.21
5284;BME280;15377;48.540;9.268;2023-04-27T07:59:52;97641.94;;;13.35;91.18
5284;BME280;15377;48.540;9.268;2023-04-27T08:02:17;97635.69;;;13.40;96.84
5284;BME280;15377;48.540;9.268;2023-04-27T08:04:43;97642.63;;;13.50;99.23
5284;BME280;15377;48.540;9.268;2023-04-27T08:07:08;97631.09;;;13.57;96.14
5284;BME280;15377;48.540;9.268;2023-04-27T08:09:33;97635.50;;;13.89;96.61
5284;BME280;15377;48.540;9.268;2023-04-27T08:11:59;97619.53;;;14.04;93.76
5284;BME280;15377;48.540;9.268;2023-04-27T08:14:24;97626.03;;;14.21;93.61
5284;BME280;15377;48.540;9.268;2023-04-27T08:16:49;97624.75;;;14.22;87.45
5284;BME280;15377;48.540;9.268;2023-04-27T08:19:17;97628.06;;;14.26;89.85
5284;BME280;15377;48.540;9.268;2023-04-27T08:21:42;97625.56;;;14.28;93.54
5284;BME280;15377;48.540;9.268;2023-04-27T08:24:08;97621.03;;;14.30;93.79
5284;BME280;15377;48.540;9.268;2023-04-27T08:26:36;97625.38;;;14.68;96.07
5284;BME280;15377;48.540;9.268;2023-04-27T08:29:01;97622.50;;;14.93;90.78
5284;BME280;15377;48.540;9.268;2023-04-27T08:31:27;97616.97;;;14.93;86.01
5284;BME280;15377;48.540;9.268;2023-04-27T08:33:53;97609.94;;;14.56;88.17
5284;BME280;15377;48.540;9.268;2023-04-27T08:36:20;97617.16;;;14.48;91.56
5284;BME280;15377;48.540;9.268;2023-04-27T08:38:49;97615.19;;;14.54;90.86
5284;BME280;15377;48.540;9.268;2023-04-27T08:41:21;97611.31;;;14.71;88.40
5284;BME280;15377;48.540;9.268;2023-04-27T08:43:48;97604.78;;;14.79;86.49
5284;BME280;15377;48.540;9.268;2023-04-27T08:46:21;97605.59;;;14.85;89.82
5284;BME280;15377;48.540;9.268;2023-04-27T08:48:49;97607.06;;;14.76;89.47
5284;BME280;15377;48.540;9.268;2023-04-27T08:51:14;97598.00;;;14.80;88.53
5284;BME280;15377;48.540;9.268;2023-04-27T08:53:47;97608.75;;;15.09;89.00
5284;BME280;15377;48.540;9.268;2023-04-27T08:56:13;97605.28;;;15.20;83.78
5284;BME280;15377;48.540;9.268;2023-04-27T08:58:38;97610.69;;;15.45;84.19
5284;BME280;15377;48.540;9.268;2023-04-27T09:01:05;97607.47;;;15.63;81.72
5284;BME280;15377;48.540;9.268;2023-04-27T09:03:33;97608.31;;;16.08;84.49
5284;BME280;15377;48.540;9.268;2023-04-27T09:06:00;97604.31;;;16.47;84.50
5284;BME280;15377;48.540;9.268;2023-04-27T09:08:26;97587.38;;;16.67;81.23
5284;BME280;15377;48.540;9.268;2023-04-27T09:10:52;97597.94;;;16.96;73.33
5284;BME280;15377;48.540;9.268;2023-04-27T09:13:19;97596.84;;;17.21;69.12
5284;BME280;15377;48.540;9.268;2023-04-27T09:15:49;97599.41;;;17.08;66.78
5284;BME280;15377;48.540;9.268;2023-04-27T09:18:19;97590.22;;;17.35;69.31
5284;BME280;15377;48.540;9.268;2023-04-27T09:20:50;97597.59;;;17.27;68.65
5284;BME280;15377;48.540;9.268;2023-04-27T09:23:28;97596.78;;;17.32;61.49
5284;BME280;15377;48.540;9.268;2023-04-27T09:25:55;97598.06;;;17.37;60.39
5284;BME280;15377;48.540;9.268;2023-04-27T09:28:23;97607.09;;;17.54;58.52
5284;BME280;15377;48.540;9.268;2023-04-27T09:30:53;97600.81;;;17.42;58.22
5284;BME280;15377;48.540;9.268;2023-04-27T09:35:48;97606.06;;;17.97;58.30
5284;BME280;15377;48.540;9.268;2023-04-27T09:38:16;97604.28;;;18.00;58.71
5284;BME280;15377;48.540;9.268;2023-04-27T09:40:42;97603.75;;;18.07;58.49
5284;BME280;15377;48.540;9.268;2023-04-27T09:43:07;97595.88;;;18.46;58.09
5284;BME280;15377;48.540;9.268;2023-04-27T09:45:34;97589.25;;;18.78;54.53
5284;BME280;15377;48.540;9.268;2023-04-27T09:48:00;97593.91;;;20.60;54.79
5284;BME280;15377;48.540;9.268;2023-04-27T09:50:25;97584.50;;;22.14;46.29
5284;BME280;15377;48.540;9.268;2023-04-27T09:52:51;97592.34;;;23.45;41.22
5284;BME280;15377;48.540;9.268;2023-04-27T09:55:20;97593.97;;;24.19;38.32
5284;BME280;15377;48.540;9.268;2023-04-27T09:57:57;97591.78;;;25.08;37.73
5284;BME280;15377;48.540;9.268;2023-04-27T10:03:30;97581.88;;;25.76;34.27
5284;BME280;15377;48.540;9.268;2023-04-27T10:08:56;97584.13;;;25.78;31.83
5284;BME280;15377;48.540;9.268;2023-04-27T10:11:34;97590.31;;;24.84;33.74
5284;BME280;15377;48.540;9.268;2023-04-27T10:14:05;97583.84;;;24.16;34.37
5284;BME280;15377;48.540;9.268;2023-04-27T10:16:59;97577.31;;;23.78;36.79
5284;BME280;15377;48.540;9.268;2023-04-27T10:19:25;97573.66;;;22.31;38.66
5284;BME280;15377;48.540;9.268;2023-04-27T10:21:59;97584.84;;;21.64;38.16
5284;BME280;15377;48.540;9.268;2023-04-27T10:24:33;97579.28;;;20.99;39.05
5284;BME280;15377;48.540;9.268;2023-04-27T10:27:06;97577.63;;;21.81;41.24
5284;BME280;15377;48.540;9.268;2023-04-27T10:29:43;97578.19;;;23.58;39.46
5284;BME280;15377;48.540;9.268;2023-04-27T10:32:12;97587.06;;;23.77;38.77
5284;BME280;15377;48.540;9.268;2023-04-27T10:34:38;97580.88;;;24.29;37.16
5284;BME280;15377;48.540;9.268;2023-04-27T10:37:09;97577.34;;;25.34;36.14
5284;BME280;15377;48.540;9.268;2023-04-27T10:39:40;97581.69;;;26.21;33.49
5284;BME280;15377;48.540;9.268;2023-04-27T10:42:06;97573.53;;;27.06;32.76
5284;BME280;15377;48.540;9.268;2023-04-27T10:44:33;97571.44;;;27.31;31.35
5284;BME280;15377;48.540;9.268;2023-04-27T10:47:01;97566.94;;;27.62;30.21
5284;BME280;15377;48.540;9.268;2023-04-27T10:49:37;97561.13;;;27.43;31.27
5284;BME280;15377;48.540;9.268;2023-04-27T10:52:02;97562.63;;;27.44;29.57
5284;BME280;15377;48.540;9.268;2023-04-27T10:54:30;97557.06;;;26.95;29.79
5284;BME280;15377;48.540;9.268;2023-04-27T10:57:09;97561.88;;;27.43;32.44
5284;BME280;15377;48.540;9.268;2023-04-27T10:59:49;97556.63;;;27.91;30.53
5284;BME280;15377;48.540;9.268;2023-04-27T11:02:15;97562.81;;;28.33;30.70
5284;BME280;15377;48.540;9.268;2023-04-27T11:04:41;97561.25;;;29.40;27.89
5284;BME280;15377;48.540;9.268;2023-04-27T11:07:07;97555.00;;;29.51;27.45
5284;BME280;15377;48.540;9.268;2023-04-27T11:09:37;97564.53;;;29.46;28.85
5284;BME280;15377;48.540;9.268;2023-04-27T11:12:07;97548.28;;;29.84;28.08
5284;BME280;15377;48.540;9.268;2023-04-27T11:14:34;97559.13;;;28.66;28.66
5284;BME280;15377;48.540;9.268;2023-04-27T11:17:01;97554.00;;;27.42;30.98
5284;BME280;15377;48.540;9.268;2023-04-27T11:19:26;97549.97;;;27.62;31.27
5284;BME280;15377;48.540;9.268;2023-04-27T11:22:04;97557.25;;;26.73;31.89
5284;BME280;15377;48.540;9.268;2023-04-27T11:24:31;97558.69;;;26.00;31.52
5284;BME280;15377;48.540;9.268;2023-04-27T11:26:56;97552.19;;;26.15;31.12
5284;BME280;15377;48.540;9.268;2023-04-27T11:29:21;97551.41;;;25.90;31.54
5284;BME280;15377;48.540;9.268;2023-04-27T11:31:49;97548.28;;;24.94;32.89
5284;BME280;15377;48.540;9.268;2023-04-27T11:34:23;97558.75;;;25.23;32.87
5284;BME280;15377;48.540;9.268;2023-04-27T11:37:05;97542.34;;;25.44;32.99
5284;BME280;15377;48.540;9.268;2023-04-27T11:39:35;97533.16;;;25.44;33.73
5284;BME280;15377;48.540;9.268;2023-04-27T11:42:22;97546.13;;;25.86;32.06
5284;BME280;15377;48.540;9.268;2023-04-27T11:47:22;97551.22;;;26.52;30.09
5284;BME280;15377;48.540;9.268;2023-04-27T11:49:48;97550.94;;;27.06;31.63
5284;BME280;15377;48.540;9.268;2023-04-27T11:52:15;97550.72;;;26.38;30.37
5284;BME280;15377;48.540;9.268;2023-04-27T11:54:52;97554.72;;;26.03;30.16
5284;BME280;15377;48.540;9.268;2023-04-27T11:57:29;97540.13;;;25.82;32.31
5284;BME280;15377;48.540;9.268;2023-04-27T11:59:57;97548.38;;;25.95;32.47
5284;BME280;15377;48.540;9.268;2023-04-27T12:02:24;97546.44;;;26.62;30.62
5284;BME280;15377;48.540;9.268;2023-04-27T12:04:51;97527.34;;;27.11;30.57
5284;BME280;15377;48.540;9.268;2023-04-27T12:07:17;97545.53;;;26.27;30.70
5284;BME280;15377;48.540;9.268;2023-04-27T12:09:43;97533.88;;;26.23;29.35
5284;BME280;15377;48.540;9.268;2023-04-27T12:12:09;97534.47;;;26.22;31.25
5284;BME280;15377;48.540;9.268;2023-04-27T12:14:35;97526.63;;;27.61;31.27
5284;BME280;15377;48.540;9.268;2023-04-27T12:17:00;97526.03;;;27.46;28.94
5284;BME280;15377;48.540;9.268;2023-04-27T12:19:26;97521.69;;;27.62;29.60
5284;BME280;15377;48.540;9.268;2023-04-27T12:21:51;97519.28;;;27.75;28.64
5284;BME280;15377;48.540;9.268;2023-04-27T12:24:17;97520.88;;;26.60;30.04
5284;BME280;15377;48.540;9.268;2023-04-27T12:26:43;97516.56;;;25.55;30.71
5284;BME280;15377;48.540;9.268;2023-04-27T12:29:08;97510.19;;;24.85;30.13
5284;BME280;15377;48.540;9.268;2023-04-27T12:31:34;97520.69;;;24.92;31.80
5284;BME280;15377;48.540;9.268;2023-04-27T12:34:00;97522.03;;;24.61;34.33
5284;BME280;15377;48.540;9.268;2023-04-27T12:36:25;97505.88;;;24.54;32.32
5284;BME280;15377;48.540;9.268;2023-04-27T12:38:52;97521.25;;;24.53;33.81
5284;BME280;15377;48.540;9.268;2023-04-27T12:41:18;97507.53;;;24.35;32.61
5284;BME280;15377;48.540;9.268;2023-04-27T12:43:43;97514.88;;;24.68;33.25
5284;BME280;15377;48.540;9.268;2023-04-27T12:46:10;97516.28;;;23.86;34.06
5284;BME280;15377;48.540;9.268;2023-04-27T12:48:35;97514.22;;;23.36;34.60
5284;BME280;15377;48.540;9.268;2023-04-27T12:51:01;97512.38;;;23.11;35.94
5284;BME280;15377;48.540;9.268;2023-04-27T12:53:27;97513.53;;;22.60;36.61
5284;BME280;15377;48.540;9.268;2023-04-27T12:55:52;97520.50;;;22.46;37.32
5284;BME280;15377;48.540;9.268;2023-04-27T12:58:18;97519.75;;;21.84;36.62
5284;BME280;15377;48.540;9.268;2023-04-27T13:00:44;97515.34;;;21.62;39.72
5284;BME280;15377;48.540;9.268;2023-04-27T13:03:09;97510.03;;;21.85;40.47
5284;BME280;15377;48.540;9.268;2023-04-27T13:05:35;97512.34;;;21.14;41.43
5284;BME280;15377;48.540;9.268;2023-04-27T13:08:00;97503.28;;;20.95;41.17
5284;BME280;15377;48.540;9.268;2023-04-27T13:10:27;97513.72;;;21.20;41.93
5284;BME280;15377;48.540;9.268;2023-04-27T13:12:53;97496.59;;;21.37;42.92
5284;BME280;15377;48.540;9.268;2023-04-27T13:15:18;97493.41;;;21.66;40.39
5284;BME280;15377;48.540;9.268;2023-04-27T13:17:44;97484.88;;;22.13;40.59